Time;durP1;ratioP1;P1;durP2;ratioP2;P2;SDS_P1;SDS_P2;PMS_P1;PMS_P2;Temp;Humidity;BMP_temperature;BMP_pressure;BME280_temperature;BME280_humidity;BME280_pressure;Samples;Min_cycle;Max_cycle;Signal;HPM_P1;HPM_P2
2022/12/31 00:00:59;;;;;;;2.67;2.47;;;;;;;12.93;100.00;99124.22;5079293;28;20473;-75
2022/12/31 00:03:27;;;;;;;2.90;2.70;;;;;;;12.94;100.00;99128.59;5080477;28;20476;-75
2022/12/31 00:05:55;;;;;;;2.73;2.53;;;;;;;12.85;100.00;99118.97;5079768;28;20540;-73
2022/12/31 00:08:22;;;;;;;2.77;2.40;;;;;;;12.87;100.00;99130.34;5076633;28;20996;-75
2022/12/31 00:10:49;;;;;;;2.07;1.87;;;;;;;12.88;100.00;99137.34;5080642;28;20499;-75
2022/12/31 00:13:16;;;;;;;2.37;2.13;;;;;;;12.84;100.00;99128.84;5080995;28;20451;-76
2022/12/31 00:15:44;;;;;;;3.27;2.60;;;;;;;12.91;100.00;99131.63;5079942;28;20476;-74
2022/12/31 00:18:11;;;;;;;2.40;2.10;;;;;;;12.86;100.00;99132.16;5077878;28;20460;-75
2022/12/31 00:20:40;;;;;;;2.37;2.17;;;;;;;12.84;100.00;99146.78;5080658;28;20497;-74
2022/12/31 00:23:09;;;;;;;3.57;2.63;;;;;;;12.63;100.00;99138.41;5078264;28;20467;-75
2022/12/31 00:25:36;;;;;;;1.83;1.70;;;;;;;12.59;100.00;99136.31;5079179;28;20501;-75
2022/12/31 00:28:04;;;;;;;2.60;2.40;;;;;;;12.59;100.00;99138.97;5079208;28;20509;-74
2022/12/31 00:30:31;;;;;;;2.30;2.10;;;;;;;12.55;100.00;99159.97;5081740;28;20500;-75
2022/12/31 00:32:57;;;;;;;4.50;2.63;;;;;;;12.58;100.00;99148.84;5080893;28;20475;-75
2022/12/31 00:35:26;;;;;;;3.80;2.20;;;;;;;12.46;100.00;99155.66;5081928;28;20451;-74
2022/12/31 00:37:53;;;;;;;2.00;1.80;;;;;;;12.50;100.00;99153.44;5085123;28;20971;-74
2022/12/31 00:40:21;;;;;;;2.23;2.03;;;;;;;12.44;100.00;99147.78;5087379;28;20470;-74
2022/12/31 00:42:48;;;;;;;2.00;1.90;;;;;;;12.49;100.00;99149.13;5102526;28;20469;-75
2022/12/31 00:45:15;;;;;;;2.80;1.77;;;;;;;12.44;100.00;99147.78;5099356;28;20510;-75
2022/12/31 00:47:42;;;;;;;2.50;2.30;;;;;;;12.38;100.00;99145.84;5099770;28;20747;-73
2022/12/31 00:50:09;;;;;;;2.20;1.77;;;;;;;12.43;100.00;99142.63;5097448;28;20699;-64
2022/12/31 00:52:36;;;;;;;2.20;2.00;;;;;;;12.43;100.00;99142.63;5102194;28;20479;-64
2022/12/31 00:55:03;;;;;;;2.50;2.20;;;;;;;12.41;100.00;99142.81;5098296;28;20491;-65
2022/12/31 00:57:31;;;;;;;1.93;1.70;;;;;;;12.41;100.00;99150.84;5101621;28;20471;-64
2022/12/31 00:59:58;;;;;;;2.43;2.23;;;;;;;12.43;100.00;99148.00;5098937;28;20456;-64
2022/12/31 01:02:25;;;;;;;2.70;2.27;;;;;;;12.39;100.00;99133.28;5095613;28;20674;-64
2022/12/31 01:04:52;;;;;;;2.67;2.47;;;;;;;12.52;100.00;99133.50;5096755;28;20502;-64
2022/12/31 01:07:18;;;;;;;3.97;2.30;;;;;;;12.52;100.00;99130.00;5100233;28;20521;-65
2022/12/31 01:09:45;;;;;;;2.83;2.40;;;;;;;12.63;100.00;99132.22;5098361;28;20458;-64
2022/12/31 01:12:12;;;;;;;3.47;1.60;;;;;;;12.61;100.00;99131.59;5099531;28;20479;-64
2022/12/31 01:14:40;;;;;;;2.20;2.00;;;;;;;12.52;100.00;99124.63;5100570;28;20441;-65
2022/12/31 01:17:07;;;;;;;2.13;1.93;;;;;;;12.55;100.00;99130.47;5101940;28;20463;-65
2022/12/31 01:19:34;;;;;;;2.27;1.70;;;;;;;12.58;100.00;99135.44;5097653;28;20435;-64
2022/12/31 01:22:00;;;;;;;2.10;1.93;;;;;;;12.47;100.00;99135.06;5095998;28;20466;-64
2022/12/31 01:24:27;;;;;;;2.57;1.90;;;;;;;12.55;100.00;99143.88;5098108;28;20451;-64
2022/12/31 01:26:56;;;;;;;2.17;1.90;;;;;;;12.56;100.00;99139.34;5101680;28;20890;-64
2022/12/31 01:29:23;;;;;;;1.87;1.77;;;;;;;12.50;100.00;99140.03;5093518;28;20440;-64
2022/12/31 01:31:51;;;;;;;2.70;2.00;;;;;;;12.49;100.00;99125.00;5102148;28;20501;-64
2022/12/31 01:34:18;;;;;;;3.60;2.10;;;;;;;12.49;100.00;99128.50;5098198;28;21273;-65
2022/12/31 01:36:45;;;;;;;3.23;2.20;;;;;;;12.50;100.00;99146.25;5100801;28;20518;-64
2022/12/31 01:39:12;;;;;;;2.47;2.20;;;;;;;12.59;100.00;99138.97;5097327;28;20441;-65
2022/12/31 01:41:40;;;;;;;2.23;2.03;;;;;;;12.50;100.00;99132.84;5089187;28;20483;-64
2022/12/31 01:44:41;;;;;;;2.00;1.90;;;;;;;12.57;100.00;99133.78;5091497;28;20452;-64
2022/12/31 01:47:14;;;;;;;2.10;1.90;;;;;;;12.41;100.00;99134.78;5090414;28;20512;-64
2022/12/31 01:49:44;;;;;;;2.07;1.63;;;;;;;12.50;100.00;99140.91;5086294;28;20518;-64
2022/12/31 01:52:14;;;;;;;2.93;2.07;;;;;;;12.50;100.00;99143.59;5090818;28;20832;-64
2022/12/31 01:54:46;;;;;;;2.70;1.63;;;;;;;12.47;100.00;99140.44;5088685;28;21372;-63
2022/12/31 01:57:13;;;;;;;1.37;1.27;;;;;;;12.46;100.00;99138.75;5091644;28;20503;-64
2022/12/31 01:59:40;;;;;;;1.30;1.20;;;;;;;12.46;100.00;99114.63;5092209;28;20999;-64
2022/12/31 02:02:07;;;;;;;2.87;1.47;;;;;;;12.33;100.00;99121.44;5090456;28;20460;-64
2022/12/31 02:04:35;;;;;;;1.60;1.50;;;;;;;12.36;100.00;99120.22;5092284;28;20502;-64
2022/12/31 02:07:05;;;;;;;1.60;1.50;;;;;;;12.30;100.00;99129.81;5087837;28;20515;-64
2022/12/31 02:09:33;;;;;;;1.60;1.50;;;;;;;12.36;100.00;99141.66;5090934;28;21093;-64
2022/12/31 02:12:00;;;;;;;1.63;1.53;;;;;;;12.28;100.00;99133.72;5091493;28;20502;-64
2022/12/31 02:14:29;;;;;;;2.53;1.57;;;;;;;12.17;100.00;99118.84;5094728;28;20972;-63
2022/12/31 02:17:01;;;;;;;3.10;1.70;;;;;;;12.27;100.00;99126.66;5101648;28;21016;-64
2022/12/31 02:19:48;;;;;;;2.93;1.63;;;;;;;12.30;100.00;99099.50;5098033;28;20482;-64
2022/12/31 02:22:25;;;;;;;1.83;1.73;;;;;;;12.14;100.00;99092.44;5101180;28;20501;-64
2022/12/31 02:25:04;;;;;;;1.30;1.20;;;;;;;12.19;100.00;99098.94;5062104;28;20456;-64
2022/12/31 02:27:41;;;;;;;1.90;1.70;;;;;;;12.10;100.00;99091.97;5063317;28;20512;-63
2022/12/31 02:30:13;;;;;;;2.00;1.77;;;;;;;12.24;100.00;99088.50;5092620;28;20481;-63
2022/12/31 02:32:59;;;;;;;1.30;1.20;;;;;;;12.25;100.00;99075.94;5097949;28;20474;-63
2022/12/31 02:35:29;;;;;;;1.77;1.57;;;;;;;12.21;100.00;99075.47;5081464;28;20496;-63
2022/12/31 02:38:00;;;;;;;1.73;1.43;;;;;;;12.23;100.00;99067.25;5093726;28;20460;-63
2022/12/31 02:40:27;;;;;;;1.47;1.37;;;;;;;12.27;100.00;99076.56;5088919;28;21023;-64
2022/12/31 02:42:54;;;;;;;1.70;1.60;;;;;;;12.37;100.00;99069.13;5081858;28;20460;-64
2022/12/31 02:45:27;;;;;;;2.90;1.60;;;;;;;12.29;100.00;99076.41;5090274;28;20452;-64
2022/12/31 02:48:05;;;;;;;1.40;1.30;;;;;;;12.31;100.00;99075.22;5091175;28;20567;-64
2022/12/31 02:50:38;;;;;;;1.93;1.40;;;;;;;12.36;100.00;99062.13;5094043;28;21040;-64
2022/12/31 02:53:16;;;;;;;1.40;1.30;;;;;;;12.37;100.00;99053.03;5089111;28;20455;-64
2022/12/31 02:55:49;;;;;;;1.40;1.30;;;;;;;12.42;100.00;99049.81;5080049;28;20464;-64
2022/12/31 02:58:21;;;;;;;1.20;1.03;;;;;;;12.39;100.00;99043.00;5082568;28;20489;-64
2022/12/31 03:03:39;;;;;;;1.10;1.00;;;;;;;12.42;100.00;99041.78;5094346;28;20451;-64
2022/12/31 03:06:08;;;;;;;0.90;0.80;;;;;;;12.50;100.00;99036.34;5089621;28;20536;-64
2022/12/31 03:09:11;;;;;;;1.07;0.90;;;;;;;12.50;100.00;99043.53;5089305;28;20444;-63
2022/12/31 03:14:02;;;;;;;1.20;1.10;;;;;;;12.64;100.00;99023.97;5084624;28;20945;-64
2022/12/31 03:16:30;;;;;;;0.80;0.80;;;;;;;12.67;100.00;99018.22;5094064;28;20536;-64
2022/12/31 03:27:09;;;;;;;2.10;0.90;;;;;;;12.67;100.00;99004.81;5100579;28;20505;-63
2022/12/31 03:29:36;;;;;;;0.93;0.90;;;;;;;12.71;100.00;99006.13;5082899;28;20527;-64
2022/12/31 03:32:05;;;;;;;3.37;1.17;;;;;;;12.70;100.00;99007.13;5094742;28;20502;-64
2022/12/31 03:34:31;;;;;;;1.37;0.93;;;;;;;12.84;100.00;99020.72;5088224;28;20455;-64
2022/12/31 03:36:58;;;;;;;0.60;0.60;;;;;;;12.91;100.00;99022.47;5100667;28;20486;-64
2022/12/31 03:39:25;;;;;;;0.67;0.67;;;;;;;12.93;100.00;99009.72;5098141;28;20500;-64
2022/12/31 03:41:51;;;;;;;0.83;0.60;;;;;;;12.92;100.00;99012.59;5100169;28;20479;-64
2022/12/31 03:44:18;;;;;;;0.70;0.70;;;;;;;12.93;100.00;99006.19;5081692;28;20499;-64
2022/12/31 03:46:44;;;;;;;0.50;0.50;;;;;;;12.99;100.00;99008.16;5097978;28;20483;-64
2022/12/31 03:49:13;;;;;;;1.53;0.70;;;;;;;13.04;100.00;99011.09;5092375;28;20491;-64
2022/12/31 03:51:39;;;;;;;0.83;0.70;;;;;;;13.10;100.00;99004.97;5100682;28;20483;-64
2022/12/31 03:54:06;;;;;;;0.73;0.60;;;;;;;13.11;100.00;99016.56;5083192;28;20464;-64
2022/12/31 03:56:33;;;;;;;1.43;1.07;;;;;;;13.16;100.00;99023.00;5093956;28;20467;-64
2022/12/31 03:58:59;;;;;;;0.60;0.47;;;;;;;13.17;100.00;99015.78;5090820;28;20444;-64
2022/12/31 04:01:26;;;;;;;0.50;0.50;;;;;;;13.31;100.00;99019.47;5087881;28;20532;-64
2022/12/31 04:03:52;;;;;;;0.60;0.60;;;;;;;13.31;100.00;99027.50;5098020;28;20476;-64
2022/12/31 04:06:20;;;;;;;1.40;0.67;;;;;;;13.35;100.00;99040.41;5099606;28;20480;-64
2022/12/31 04:08:47;;;;;;;0.50;0.50;;;;;;;13.41;100.00;99059.47;5103561;28;20467;-64
2022/12/31 04:11:14;;;;;;;0.80;0.70;;;;;;;13.40;100.00;99104.25;5095238;28;20496;-64
2022/12/31 04:13:41;;;;;;;1.07;0.70;;;;;;;13.28;100.00;99111.94;5096564;28;20791;-64
2022/12/31 04:16:08;;;;;;;0.70;0.70;;;;;;;13.09;100.00;99113.34;5101876;28;20479;-64
2022/12/31 04:18:34;;;;;;;0.83;0.77;;;;;;;12.84;100.00;99115.44;5104412;28;20451;-64
2022/12/31 04:21:02;;;;;;;0.80;0.50;;;;;;;12.90;100.00;99122.75;5097259;28;20507;-64
2022/12/31 04:23:30;;;;;;;0.70;0.30;;;;;;;12.87;100.00;99106.19;5091840;28;20483;-63
2022/12/31 04:25:57;;;;;;;1.53;0.40;;;;;;;12.80;100.00;99111.47;5099466;28;20490;-64
2022/12/31 04:28:24;;;;;;;1.53;0.30;;;;;;;12.72;100.00;99114.22;5104714;28;20494;-64
2022/12/31 04:30:51;;;;;;;0.50;0.40;;;;;;;12.67;100.00;99114.75;5094618;28;20463;-64
2022/12/31 04:33:17;;;;;;;0.57;0.30;;;;;;;12.58;100.00;99115.84;5103112;28;20932;-64
2022/12/31 04:35:44;;;;;;;0.50;0.30;;;;;;;12.56;100.00;99113.34;5086123;28;20488;-64
2022/12/31 04:38:11;;;;;;;0.47;0.30;;;;;;;12.54;100.00;99122.59;5084836;28;20498;-64
2022/12/31 04:41:15;;;;;;;0.40;0.30;;;;;;;12.47;100.00;99110.94;5083277;28;20514;-63
2022/12/31 04:43:26;;;;;;;0.50;0.40;;;;;;;12.49;100.00;99120.44;5095616;28;20515;-63
2022/12/31 04:45:53;;;;;;;0.40;0.30;;;;;;;12.40;100.00;99126.91;5088550;28;20552;-63
2022/12/31 04:48:20;;;;;;;0.53;0.40;;;;;;;12.31;100.00;99131.50;5099724;28;20476;-63
2022/12/31 04:50:47;;;;;;;0.40;0.30;;;;;;;12.44;100.00;99122.84;5097929;28;20809;-63
2022/12/31 04:53:14;;;;;;;0.40;0.30;;;;;;;12.35;100.00;99124.75;5101400;28;20458;-63
2022/12/31 04:55:42;;;;;;;0.73;0.50;;;;;;;12.48;100.00;99117.94;5083164;28;20502;-63
2022/12/31 04:58:09;;;;;;;0.77;0.57;;;;;;;12.43;100.00;99116.66;5093797;28;20431;-63
2022/12/31 05:00:35;;;;;;;0.60;0.50;;;;;;;12.43;100.00;99121.19;5082776;28;20472;-63
2022/12/31 05:03:02;;;;;;;0.50;0.40;;;;;;;12.46;100.00;99117.31;5094028;28;20444;-63
2022/12/31 05:05:29;;;;;;;0.43;0.43;;;;;;;12.42;100.00;99119.50;5092462;28;20468;-63
2022/12/31 05:07:56;;;;;;;0.50;0.30;;;;;;;12.39;100.00;99119.88;5085925;28;20831;-64
2022/12/31 05:10:23;;;;;;;0.90;0.47;;;;;;;12.51;100.00;99123.78;5095834;28;20468;-63
2022/12/31 05:12:51;;;;;;;0.80;0.57;;;;;;;12.52;100.00;99128.13;5095491;28;20486;-63
2022/12/31 05:15:18;;;;;;;0.40;0.40;;;;;;;12.52;100.00;99121.97;5102408;28;20455;-63
2022/12/31 05:17:45;;;;;;;0.60;0.37;;;;;;;12.53;100.00;99116.38;5088080;28;20516;-63
2022/12/31 05:20:11;;;;;;;0.63;0.53;;;;;;;12.56;100.00;99115.22;5102616;28;20431;-63
2022/12/31 05:22:38;;;;;;;0.60;0.50;;;;;;;12.56;100.00;99104.47;5089014;28;20456;-63
2022/12/31 05:25:06;;;;;;;0.80;0.70;;;;;;;12.57;100.00;99109.66;5093457;28;20902;-63
2022/12/31 05:27:33;;;;;;;0.50;0.40;;;;;;;12.58;100.00;99116.69;5093088;28;20500;-63
2022/12/31 05:30:01;;;;;;;0.83;0.83;;;;;;;12.53;100.00;99121.75;5103355;28;20443;-63
2022/12/31 05:32:28;;;;;;;1.90;0.40;;;;;;;12.62;100.00;99111.81;5101453;28;20939;-63
2022/12/31 05:34:55;;;;;;;0.47;0.47;;;;;;;12.63;100.00;99110.78;5099666;28;20650;-64
2022/12/31 05:37:22;;;;;;;0.60;0.50;;;;;;;12.61;100.00;99110.97;5102363;28;20508;-64
2022/12/31 05:39:49;;;;;;;0.93;0.63;;;;;;;12.55;100.00;99108.16;5094962;28;20923;-64
2022/12/31 05:42:16;;;;;;;0.60;0.60;;;;;;;12.58;100.00;99110.50;5095889;28;20484;-64
2022/12/31 05:44:42;;;;;;;0.57;0.57;;;;;;;12.59;100.00;99114.84;5098030;28;20933;-64
2022/12/31 05:47:11;;;;;;;0.60;0.60;;;;;;;12.64;100.00;99104.41;5101743;28;20471;-63
2022/12/31 05:49:38;;;;;;;1.23;0.60;;;;;;;12.67;100.00;99113.94;5096508;28;20498;-63
2022/12/31 05:52:05;;;;;;;0.90;0.80;;;;;;;12.68;100.00;99102.19;5089906;28;20572;-63
2022/12/31 05:54:32;;;;;;;0.90;0.90;;;;;;;12.53;100.00;99100.28;5082562;28;20496;-63
2022/12/31 05:56:59;;;;;;;1.53;1.43;;;;;;;12.55;100.00;99097.44;5102641;28;20487;-64
2022/12/31 05:59:26;;;;;;;2.20;2.00;;;;;;;12.59;100.00;99104.13;5096283;28;20451;-63
2022/12/31 06:01:53;;;;;;;3.40;2.70;;;;;;;12.61;100.00;99096.72;5101314;28;20628;-63
2022/12/31 06:04:22;;;;;;;3.30;2.70;;;;;;;12.75;100.00;99093.22;5081674;28;20552;-64
2022/12/31 06:06:49;;;;;;;2.60;2.40;;;;;;;12.80;100.00;99090.00;5091129;28;20706;-64
2022/12/31 06:09:16;;;;;;;3.57;2.93;;;;;;;12.91;100.00;99086.03;5085582;28;20507;-63
2022/12/31 06:11:43;;;;;;;3.13;2.83;;;;;;;12.85;100.00;99081.41;5102092;28;20463;-64
2022/12/31 06:14:10;;;;;;;3.47;3.10;;;;;;;13.02;100.00;99077.53;5097018;28;20451;-64
2022/12/31 06:16:36;;;;;;;2.60;2.40;;;;;;;13.06;100.00;99062.72;5102050;28;20502;-64
2022/12/31 06:19:04;;;;;;;2.10;1.80;;;;;;;13.17;100.00;99048.00;5085648;28;20485;-64
2022/12/31 06:21:32;;;;;;;1.97;1.77;;;;;;;13.18;100.00;99055.84;5096159;28;20475;-64
2022/12/31 06:23:58;;;;;;;2.33;1.50;;;;;;;13.15;100.00;99050.84;5088647;28;20452;-64
2022/12/31 06:26:26;;;;;;;1.27;1.17;;;;;;;13.27;100.00;99051.22;5101384;28;20472;-64
2022/12/31 06:28:53;;;;;;;1.17;0.93;;;;;;;13.31;100.00;99065.09;5099078;28;20472;-64
2022/12/31 06:31:20;;;;;;;0.80;0.80;;;;;;;13.39;100.00;99061.53;5101366;28;20483;-63
2022/12/31 06:33:46;;;;;;;1.13;1.03;;;;;;;13.49;100.00;99059.38;5089018;28;20492;-64
2022/12/31 06:36:15;;;;;;;0.93;0.90;;;;;;;13.51;100.00;99057.31;5096411;28;20541;-64
2022/12/31 06:38:43;;;;;;;0.70;0.70;;;;;;;13.46;100.00;99041.78;5083880;28;20464;-63
2022/12/31 06:41:12;;;;;;;1.27;0.83;;;;;;;13.65;100.00;99067.19;5061108;28;20970;-64
2022/12/31 06:43:39;;;;;;;1.33;1.00;;;;;;;13.72;100.00;99057.34;5087872;28;20476;-64
2022/12/31 06:46:08;;;;;;;2.47;1.27;;;;;;;13.85;100.00;99062.03;5088943;28;20511;-64
2022/12/31 06:48:35;;;;;;;1.20;1.10;;;;;;;13.86;100.00;99081.66;5093614;28;20488;-64
2022/12/31 06:51:04;;;;;;;1.13;0.67;;;;;;;13.87;100.00;99065.38;5100319;28;20484;-63
2022/12/31 06:53:30;;;;;;;0.80;0.70;;;;;;;14.01;100.00;99084.28;5093531;28;20445;-63
2022/12/31 06:56:04;;;;;;;0.90;0.70;;;;;;;14.21;100.00;99097.94;5082735;28;20488;-64
2022/12/31 06:58:31;;;;;;;1.00;0.90;;;;;;;14.39;100.00;99089.41;5081614;28;20443;-64
2022/12/31 07:01:06;;;;;;;1.60;1.00;;;;;;;14.37;100.00;99083.38;5096118;28;20506;-64
2022/12/31 07:03:39;;;;;;;1.33;0.77;;;;;;;14.49;100.00;99101.50;5084941;28;20462;-64
2022/12/31 07:06:09;;;;;;;1.80;1.47;;;;;;;14.58;100.00;99117.47;5082645;28;20933;-64
2022/12/31 07:08:45;;;;;;;0.90;0.60;;;;;;;14.81;100.00;99101.97;5100029;28;20496;-64
2022/12/31 07:11:19;;;;;;;2.33;0.90;;;;;;;14.81;100.00;99126.19;5091892;28;20461;-64
2022/12/31 07:13:56;;;;;;;0.97;0.60;;;;;;;14.85;100.00;99145.47;5091393;28;20465;-64
2022/12/31 07:16:35;;;;;;;0.60;0.60;;;;;;;14.92;100.00;99121.31;5085603;28;20517;-64
2022/12/31 07:19:09;;;;;;;1.07;0.60;;;;;;;14.97;100.00;99135.81;5100614;28;20444;-63
2022/12/31 07:21:39;;;;;;;2.07;0.60;;;;;;;15.04;100.00;99128.63;5095902;28;20568;-64
2022/12/31 07:24:07;;;;;;;0.60;0.60;;;;;;;15.21;100.00;99134.53;5101161;28;20479;-65
2022/12/31 07:26:47;;;;;;;2.60;0.70;;;;;;;15.07;100.00;99152.47;5074940;28;20486;-64
2022/12/31 07:29:22;;;;;;;1.30;0.50;;;;;;;15.09;100.00;99154.13;5083369;28;20479;-64
2022/12/31 07:31:55;;;;;;;2.10;0.67;;;;;;;15.21;100.00;99120.25;5084539;28;21005;-64
2022/12/31 07:34:25;;;;;;;2.30;0.70;;;;;;;15.13;100.00;99153.53;5079674;28;20481;-64
2022/12/31 07:37:01;;;;;;;2.10;0.80;;;;;;;15.12;100.00;99143.81;5082383;28;20512;-65
2022/12/31 07:39:34;;;;;;;1.03;0.47;;;;;;;15.18;100.00;99159.16;5079254;28;20589;-64
2022/12/31 07:42:10;;;;;;;1.37;0.50;;;;;;;15.19;100.00;99160.81;5080003;28;20470;-64
2022/12/31 07:44:48;;;;;;;2.77;0.70;;;;;;;15.16;100.00;99171.97;5069377;28;20463;-65
2022/12/31 07:47:20;;;;;;;0.60;0.50;;;;;;;15.22;100.00;99170.34;5080013;28;20497;-65
2022/12/31 07:49:48;;;;;;;1.87;0.90;;;;;;;15.09;100.00;99171.09;5078658;28;20494;-65
2022/12/31 07:52:15;;;;;;;1.00;0.60;;;;;;;15.09;100.00;99192.66;5089484;28;20482;-64
2022/12/31 07:54:42;;;;;;;2.17;0.53;;;;;;;14.96;100.00;99179.91;5079703;28;20466;-64
2022/12/31 07:57:12;;;;;;;2.60;0.90;;;;;;;14.94;100.00;99181.97;5079501;28;20508;-65
2022/12/31 07:59:48;;;;;;;4.50;1.40;;;;;;;14.95;100.00;99204.34;5096691;28;20442;-65
2022/12/31 08:02:22;;;;;;;2.67;0.80;;;;;;;15.01;100.00;99196.28;5079443;28;20486;-64
2022/12/31 08:04:53;;;;;;;3.73;0.70;;;;;;;15.10;100.00;99193.47;5078871;28;20459;-63
2022/12/31 08:07:26;;;;;;;1.00;0.57;;;;;;;15.02;100.00;99192.59;5080433;28;20486;-63
2022/12/31 08:09:58;;;;;;;1.50;0.70;;;;;;;15.14;100.00;99181.28;5073869;28;20509;-63
2022/12/31 08:12:27;;;;;;;3.10;1.63;;;;;;;15.23;100.00;99177.41;5087799;28;20477;-64
2022/12/31 08:14:54;;;;;;;1.03;0.50;;;;;;;15.40;100.00;99181.47;5084377;28;20595;-63
2022/12/31 08:17:22;;;;;;;3.57;0.90;;;;;;;15.54;100.00;99170.75;5082697;28;20476;-64
2022/12/31 08:19:49;;;;;;;2.07;0.67;;;;;;;15.59;100.00;99187.97;5077132;28;20559;-64
2022/12/31 08:22:29;;;;;;;1.43;0.80;;;;;;;15.89;100.00;99182.34;5079195;28;20487;-64
2022/12/31 08:25:13;;;;;;;1.63;0.70;;;;;;;15.94;100.00;99200.63;5079184;28;20455;-64
2022/12/31 08:27:47;;;;;;;0.83;0.57;;;;;;;15.92;100.00;99165.78;5087345;28;20450;-63
2022/12/31 08:30:15;;;;;;;4.47;0.80;;;;;;;16.07;99.60;99170.16;5078819;28;20459;-64
2022/12/31 08:32:46;;;;;;;2.83;0.80;;;;;;;16.06;98.70;99171.19;5078136;28;20453;-64
2022/12/31 08:35:24;;;;;;;3.13;0.80;;;;;;;16.28;96.61;99179.97;5078129;28;20452;-64
2022/12/31 08:38:02;;;;;;;2.07;0.60;;;;;;;16.25;97.59;99191.16;5078526;28;20456;-64
2022/12/31 08:40:38;;;;;;;2.57;0.67;;;;;;;16.29;96.78;99187.03;5075917;28;20510;-65
2022/12/31 08:43:21;;;;;;;1.93;0.90;;;;;;;16.35;96.01;99195.16;5090556;28;20515;-65
2022/12/31 08:45:50;;;;;;;2.43;0.40;;;;;;;16.34;95.21;99177.28;5092100;28;20883;-65
2022/12/31 08:48:25;;;;;;;1.90;0.60;;;;;;;16.38;94.92;99185.81;5095164;28;20552;-65
2022/12/31 08:50:53;;;;;;;1.37;0.40;;;;;;;16.40;94.02;99182.91;5082188;28;20550;-64
2022/12/31 08:53:20;;;;;;;3.60;0.80;;;;;;;16.47;93.80;99194.53;5090934;28;20459;-76
2022/12/31 08:55:48;;;;;;;1.57;0.70;;;;;;;16.50;93.44;99199.53;5080802;28;20476;-76
2022/12/31 08:58:29;;;;;;;0.97;0.50;;;;;;;16.51;92.94;99209.28;5082601;28;20448;-77
2022/12/31 09:00:58;;;;;;;1.67;0.70;;;;;;;16.57;92.81;99189.56;5081337;28;20481;-78
2022/12/31 09:03:58;;;;;;;1.10;0.60;;;;;;;16.63;92.80;99198.69;5076302;28;20452;-78
2022/12/31 09:06:28;;;;;;;2.67;0.63;;;;;;;16.57;92.55;99206.59;5068766;28;20472;-78
2022/12/31 09:09:00;;;;;;;4.60;0.77;;;;;;;16.65;91.43;99180.47;5082583;28;20494;-77
2022/12/31 09:11:33;;;;;;;1.80;0.60;;;;;;;16.66;90.70;99191.03;5080987;28;20527;-76
2022/12/31 09:14:17;;;;;;;2.43;0.70;;;;;;;16.78;90.09;99193.94;5075087;28;20450;-74
2022/12/31 09:16:49;;;;;;;4.50;0.67;;;;;;;16.92;89.62;99203.72;5083228;28;20476;-76
2022/12/31 09:19:16;;;;;;;2.13;0.80;;;;;;;16.93;89.79;99235.09;5080752;28;20504;-75
2022/12/31 09:21:44;;;;;;;2.00;0.70;;;;;;;16.91;88.18;99209.38;5079910;28;20482;-77
2022/12/31 09:24:12;;;;;;;1.53;0.70;;;;;;;16.84;88.65;99211.22;5082428;28;20460;-77
2022/12/31 09:26:47;;;;;;;3.03;0.67;;;;;;;16.96;88.62;99197.91;5081146;28;20477;-76
2022/12/31 09:29:26;;;;;;;2.03;0.50;;;;;;;16.88;88.47;99217.88;5084302;28;20980;-75
2022/12/31 09:31:57;;;;;;;1.80;0.60;;;;;;;16.93;87.63;99210.81;5095641;28;20510;-77
2022/12/31 09:34:27;;;;;;;1.80;0.50;;;;;;;16.89;87.68;99204.16;5100053;28;20459;-75
2022/12/31 09:36:58;;;;;;;1.23;0.60;;;;;;;17.01;86.54;99222.44;5094963;28;20588;-79
2022/12/31 09:39:32;;;;;;;2.37;1.00;;;;;;;17.06;86.23;99236.97;5079508;28;20627;-79
2022/12/31 09:42:27;;;;;;;4.20;0.80;;;;;;;17.03;85.66;99209.53;5101386;28;20468;-79
2022/12/31 09:45:22;;;;;;;1.70;1.03;;;;;;;17.12;85.54;99216.41;5077631;28;20459;-78
2022/12/31 09:48:21;;;;;;;1.00;0.70;;;;;;;17.11;85.48;99212.88;5087648;28;20473;-79
2022/12/31 09:50:56;;;;;;;0.90;0.50;;;;;;;17.08;84.07;99229.50;5068223;28;20505;-77
2022/12/31 09:53:33;;;;;;;2.20;0.60;;;;;;;17.15;84.10;99213.31;5091079;28;20496;-78
2022/12/31 09:56:04;;;;;;;3.10;0.93;;;;;;;17.15;84.08;99231.38;5098019;28;20514;-78
2022/12/31 09:58:42;;;;;;;0.93;0.60;;;;;;;17.22;82.63;99234.88;5091899;28;20493;-74
2022/12/31 10:01:22;;;;;;;4.50;0.97;;;;;;;17.22;82.74;99224.94;5086841;28;20480;-80
2022/12/31 10:04:24;;;;;;;1.33;0.60;;;;;;;17.25;82.25;99246.09;5078634;28;20469;-79
2022/12/31 10:07:01;;;;;;;1.50;0.60;;;;;;;17.29;81.68;99241.97;5080288;28;20479;-78
2022/12/31 10:09:39;;;;;;;1.73;0.77;;;;;;;17.19;82.03;99235.31;5078812;28;20882;-79
2022/12/31 10:12:23;;;;;;;7.40;1.27;;;;;;;17.26;80.86;99234.28;5079680;28;20560;-80
2022/12/31 10:15:04;;;;;;;1.30;0.57;;;;;;;17.44;80.69;99235.50;5076635;28;20563;-67
2022/12/31 10:17:48;;;;;;;0.90;0.60;;;;;;;17.37;80.41;99199.56;5070478;28;20484;-73
2022/12/31 10:20:28;;;;;;;1.10;0.60;;;;;;;17.34;79.94;99240.50;5083738;28;20461;-71
2022/12/31 10:23:08;;;;;;;1.20;0.83;;;;;;;17.53;79.67;99266.66;5083781;28;20447;-73
2022/12/31 10:25:50;;;;;;;2.80;0.80;;;;;;;17.29;80.71;99247.38;5080221;28;20934;-76
2022/12/31 10:28:26;;;;;;;2.17;1.00;;;;;;;17.44;80.31;99270.63;5079360;28;20453;-75
2022/12/31 10:31:02;;;;;;;1.80;0.70;;;;;;;17.42;80.30;99272.72;5086034;28;20498;-75
2022/12/31 10:33:40;;;;;;;2.87;0.80;;;;;;;17.31;81.32;99285.81;5082544;28;20735;-78
2022/12/31 10:36:09;;;;;;;2.83;0.67;;;;;;;17.16;82.00;99271.66;5095388;28;20484;-76
2022/12/31 10:38:45;;;;;;;1.57;0.73;;;;;;;17.11;82.38;99283.09;5089724;28;20466;-77
2022/12/31 10:41:48;;;;;;;3.13;0.70;;;;;;;17.08;84.97;99324.03;5080013;28;20923;-78
2022/12/31 10:45:08;;;;;;;1.77;0.70;;;;;;;16.57;90.16;99336.09;5079710;28;20504;-77
2022/12/31 10:47:49;;;;;;;1.13;0.60;;;;;;;16.40;92.88;99347.47;5073014;28;20473;-75
2022/12/31 10:50:49;;;;;;;3.20;0.90;;;;;;;16.65;91.63;99353.19;5078693;28;20475;-76
2022/12/31 10:53:46;;;;;;;2.70;1.03;;;;;;;16.53;91.08;99367.22;5079469;28;20477;-78
2022/12/31 10:56:47;;;;;;;2.13;0.97;;;;;;;16.72;89.69;99354.84;5072177;28;20500;-76
2022/12/31 10:59:39;;;;;;;1.30;0.70;;;;;;;16.91;88.40;99365.97;5087632;28;20599;-76
2022/12/31 11:02:24;;;;;;;1.13;0.70;;;;;;;16.96;87.73;99363.47;5079973;28;20483;-76
2022/12/31 11:05:05;;;;;;;5.57;3.13;;;;;;;16.95;88.02;99351.00;5090250;28;20448;-77
2022/12/31 11:07:54;;;;;;;1.80;0.70;;;;;;;16.96;87.43;99352.69;5077999;28;20488;-72
2022/12/31 11:10:45;;;;;;;2.73;0.80;;;;;;;16.91;87.93;99360.56;5076968;28;20641;-76
2022/12/31 11:13:35;;;;;;;1.83;0.90;;;;;;;16.89;88.00;99360.75;5078096;28;20442;-74
2022/12/31 11:16:23;;;;;;;1.80;0.90;;;;;;;16.91;88.25;99371.34;5073098;28;20475;-74
2022/12/31 11:18:56;;;;;;;3.10;1.27;;;;;;;16.87;88.12;99362.84;5078575;28;20492;-77
2022/12/31 11:21:30;;;;;;;5.83;1.27;;;;;;;16.76;91.00;99360.69;5076241;28;20475;-76
2022/12/31 11:24:05;;;;;;;2.50;0.90;;;;;;;16.60;94.83;99348.38;5078530;28;20479;-75
2022/12/31 11:26:43;;;;;;;0.83;0.57;;;;;;;16.57;94.17;99351.47;5078068;28;20461;-73
2022/12/31 11:29:36;;;;;;;1.30;0.90;;;;;;;16.53;93.40;99345.66;5079235;28;20473;-74
2022/12/31 11:32:23;;;;;;;2.97;1.17;;;;;;;16.73;91.57;99358.38;5074035;28;20487;-74
2022/12/31 11:35:20;;;;;;;1.73;0.90;;;;;;;16.83;89.88;99336.41;5077192;28;20846;-75
2022/12/31 11:37:48;;;;;;;1.70;0.90;;;;;;;16.89;88.77;99341.00;5073900;28;20477;-75
2022/12/31 11:40:24;;;;;;;3.50;1.03;;;;;;;17.01;87.46;99331.28;5075740;28;20479;-75
2022/12/31 11:42:57;;;;;;;1.73;0.73;;;;;;;17.11;86.61;99330.88;5077056;28;20458;-75
2022/12/31 11:45:40;;;;;;;2.73;1.00;;;;;;;17.19;86.09;99329.88;5077234;28;20448;-76
2022/12/31 11:48:13;;;;;;;2.20;1.00;;;;;;;17.23;85.44;99331.94;5078011;28;20493;-77
2022/12/31 11:50:45;;;;;;;3.70;1.20;;;;;;;17.15;84.88;99315.94;5075467;28;20470;-76
2022/12/31 11:53:25;;;;;;;3.20;1.60;;;;;;;17.30;83.35;99327.34;5076300;28;20435;-76
2022/12/31 11:56:07;;;;;;;5.57;1.43;;;;;;;17.67;80.89;99314.25;5075764;28;20524;-76
2022/12/31 11:58:34;;;;;;;2.13;1.33;;;;;;;17.64;80.92;99313.84;5078204;28;20447;-74
2022/12/31 12:01:05;;;;;;;2.73;0.83;;;;;;;17.95;79.15;99309.66;5076424;28;20491;-76
2022/12/31 12:03:32;;;;;;;3.90;0.70;;;;;;;17.89;79.50;99316.75;5077089;28;20446;-78